sensor_id;sensor_type;location;lat;lon;timestamp;P1;durP1;ratioP1;P2;durP2;ratioP2
20458;SDS011;10388;52.314;7.938;2023-05-10T03:32:15;6.27;;;5.57;;
20458;SDS011;10388;52.314;7.938;2023-05-10T03:34:46;6.23;;;5.60;;
20458;SDS011;10388;52.314;7.938;2023-05-10T03:37:16;6.90;;;6.20;;
20458;SDS011;10388;52.314;7.938;2023-05-10T03:39:47;6.83;;;5.67;;
20458;SDS011;10388;52.314;7.938;2023-05-10T03:42:17;9.97;;;6.83;;
20458;SDS011;10388;52.314;7.938;2023-05-10T03:44:48;7.53;;;6.80;;
20458;SDS011;10388;52.314;7.938;2023-05-10T03:47:19;7.47;;;6.50;;
20458;SDS011;10388;52.314;7.938;2023-05-10T03:49:50;7.57;;;6.77;;
20458;SDS011;10388;52.314;7.938;2023-05-10T03:52:20;7.40;;;6.47;;
20458;SDS011;10388;52.314;7.938;2023-05-10T03:54:51;8.43;;;6.60;;
20458;SDS011;10388;52.314;7.938;2023-05-10T03:57:22;8.13;;;6.77;;
20458;SDS011;10388;52.314;7.938;2023-05-10T03:59:52;6.87;;;6.17;;
20458;SDS011;10388;52.314;7.938;2023-05-10T04:02:23;6.77;;;6.07;;
20458;SDS011;10388;52.314;7.938;2023-05-10T04:04:53;9.97;;;6.60;;
20458;SDS011;10388;52.314;7.938;2023-05-10T04:07:24;7.50;;;6.70;;
20458;SDS011;10388;52.314;7.938;2023-05-10T04:09:54;8.93;;;6.73;;
20458;SDS011;10388;52.314;7.938;2023-05-10T04:12:25;7.37;;;6.67;;
20458;SDS011;10388;52.314;7.938;2023-05-10T04:14:55;9.37;;;7.03;;
20458;SDS011;10388;52.314;7.938;2023-05-10T04:17:26;8.60;;;7.10;;
20458;SDS011;10388;52.314;7.938;2023-05-10T04:19:56;8.73;;;6.60;;
20458;SDS011;10388;52.314;7.938;2023-05-10T04:22:27;8.20;;;7.40;;
20458;SDS011;10388;52.314;7.938;2023-05-10T04:24:59;7.43;;;6.60;;
20458;SDS011;10388;52.314;7.938;2023-05-10T04:27:29;10.50;;;7.03;;
20458;SDS011;10388;52.314;7.938;2023-05-10T04:30:01;7.43;;;6.50;;
20458;SDS011;10388;52.314;7.938;2023-05-10T04:32:31;7.93;;;6.73;;
20458;SDS011;10388;52.314;7.938;2023-05-10T04:35:02;8.17;;;6.97;;
20458;SDS011;10388;52.314;7.938;2023-05-10T04:37:34;9.13;;;6.47;;
20458;SDS011;10388;52.314;7.938;2023-05-10T04:40:05;7.33;;;6.27;;
20458;SDS011;10388;52.314;7.938;2023-05-10T04:42:36;6.90;;;5.70;;
20458;SDS011;10388;52.314;7.938;2023-05-10T04:45:06;6.73;;;5.40;;
20458;SDS011;10388;52.314;7.938;2023-05-10T04:47:39;6.17;;;5.33;;
20458;SDS011;10388;52.314;7.938;2023-05-10T04:50:09;6.13;;;5.40;;
20458;SDS011;10388;52.314;7.938;2023-05-10T04:52:40;6.30;;;5.57;;
20458;SDS011;10388;52.314;7.938;2023-05-10T04:55:11;6.33;;;5.20;;
20458;SDS011;10388;52.314;7.938;2023-05-10T04:57:41;6.60;;;5.10;;
20458;SDS011;10388;52.314;7.938;2023-05-10T05:00:12;9.83;;;5.47;;
20458;SDS011;10388;52.314;7.938;2023-05-10T05:02:43;7.83;;;5.67;;
20458;SDS011;10388;52.314;7.938;2023-05-10T05:05:15;6.17;;;5.37;;
20458;SDS011;10388;52.314;7.938;2023-05-10T05:07:45;6.37;;;5.40;;
20458;SDS011;10388;52.314;7.938;2023-05-10T05:10:16;6.33;;;5.60;;
20458;SDS011;10388;52.314;7.938;2023-05-10T05:12:46;6.13;;;5.30;;
20458;SDS011;10388;52.314;7.938;2023-05-10T05:15:17;5.50;;;4.83;;
20458;SDS011;10388;52.314;7.938;2023-05-10T05:17:47;8.57;;;5.30;;
20458;SDS011;10388;52.314;7.938;2023-05-10T05:20:18;6.33;;;5.73;;
20458;SDS011;10388;52.314;7.938;2023-05-10T05:22:49;7.67;;;5.40;;
20458;SDS011;10388;52.314;7.938;2023-05-10T05:25:19;6.17;;;5.57;;
20458;SDS011;10388;52.314;7.938;2023-05-10T05:27:50;7.27;;;5.97;;
20458;SDS011;10388;52.314;7.938;2023-05-10T05:30:20;6.90;;;5.37;;
20458;SDS011;10388;52.314;7.938;2023-05-10T05:32:51;7.87;;;5.97;;
20458;SDS011;10388;52.314;7.938;2023-05-10T05:35:22;8.50;;;6.13;;
20458;SDS011;10388;52.314;7.938;2023-05-10T05:37:52;7.80;;;5.87;;
20458;SDS011;10388;52.314;7.938;2023-05-10T05:40:23;7.50;;;6.30;;
20458;SDS011;10388;52.314;7.938;2023-05-10T05:42:53;7.33;;;5.90;;
20458;SDS011;10388;52.314;7.938;2023-05-10T05:45:24;7.03;;;6.13;;
20458;SDS011;10388;52.314;7.938;2023-05-10T05:47:54;5.57;;;5.07;;
20458;SDS011;10388;52.314;7.938;2023-05-10T05:50:25;7.17;;;6.13;;
20458;SDS011;10388;52.314;7.938;2023-05-10T05:52:56;6.03;;;5.43;;
20458;SDS011;10388;52.314;7.938;2023-05-10T05:55:27;5.93;;;5.33;;
20458;SDS011;10388;52.314;7.938;2023-05-10T05:57:58;5.80;;;5.30;;
20458;SDS011;10388;52.314;7.938;2023-05-10T06:00:28;6.67;;;5.03;;
20458;SDS011;10388;52.314;7.938;2023-05-10T06:02:59;6.67;;;5.57;;
20458;SDS011;10388;52.314;7.938;2023-05-10T06:05:29;6.60;;;5.10;;
20458;SDS011;10388;52.314;7.938;2023-05-10T06:08:00;6.93;;;5.33;;
20458;SDS011;10388;52.314;7.938;2023-05-10T06:10:31;6.37;;;4.90;;
20458;SDS011;10388;52.314;7.938;2023-05-10T06:13:01;7.33;;;5.53;;
20458;SDS011;10388;52.314;7.938;2023-05-10T06:15:32;6.17;;;5.57;;
20458;SDS011;10388;52.314;7.938;2023-05-10T06:18:03;5.57;;;4.93;;
20458;SDS011;10388;52.314;7.938;2023-05-10T06:20:33;5.53;;;4.93;;
20458;SDS011;10388;52.314;7.938;2023-05-10T06:23:04;6.70;;;5.73;;
20458;SDS011;10388;52.314;7.938;2023-05-10T06:25:34;6.93;;;5.80;;
20458;SDS011;10388;52.314;7.938;2023-05-10T06:28:05;7.27;;;5.83;;
20458;SDS011;10388;52.314;7.938;2023-05-10T06:30:36;6.10;;;5.50;;
20458;SDS011;10388;52.314;7.938;2023-05-10T06:33:07;7.37;;;6.20;;
20458;SDS011;10388;52.314;7.938;2023-05-10T06:35:37;7.27;;;5.80;;
20458;SDS011;10388;52.314;7.938;2023-05-10T06:38:08;9.07;;;6.10;;
20458;SDS011;10388;52.314;7.938;2023-05-10T06:40:41;6.80;;;5.77;;
20458;SDS011;10388;52.314;7.938;2023-05-10T06:43:12;9.20;;;6.57;;
20458;SDS011;10388;52.314;7.938;2023-05-10T06:45:42;10.43;;;6.77;;
20458;SDS011;10388;52.314;7.938;2023-05-10T06:48:13;7.97;;;6.77;;
20458;SDS011;10388;52.314;7.938;2023-05-10T06:50:43;10.70;;;7.33;;
20458;SDS011;10388;52.314;7.938;2023-05-10T06:53:14;9.37;;;7.07;;
20458;SDS011;10388;52.314;7.938;2023-05-10T06:55:45;10.23;;;7.97;;
20458;SDS011;10388;52.314;7.938;2023-05-10T06:58:16;10.23;;;7.83;;
20458;SDS011;10388;52.314;7.938;2023-05-10T07:00:46;10.73;;;7.80;;
20458;SDS011;10388;52.314;7.938;2023-05-10T07:03:17;11.67;;;7.97;;
20458;SDS011;10388;52.314;7.938;2023-05-10T07:05:47;12.07;;;8.83;;
20458;SDS011;10388;52.314;7.938;2023-05-10T07:08:18;11.50;;;8.23;;
20458;SDS011;10388;52.314;7.938;2023-05-10T07:10:48;10.40;;;7.53;;
20458;SDS011;10388;52.314;7.938;2023-05-10T07:13:19;11.20;;;8.00;;
20458;SDS011;10388;52.314;7.938;2023-05-10T07:15:49;11.03;;;8.93;;
20458;SDS011;10388;52.314;7.938;2023-05-10T07:18:20;12.43;;;9.37;;
20458;SDS011;10388;52.314;7.938;2023-05-10T07:20:50;12.70;;;9.73;;
20458;SDS011;10388;52.314;7.938;2023-05-10T07:23:21;14.73;;;9.67;;
20458;SDS011;10388;52.314;7.938;2023-05-10T07:25:52;14.63;;;9.80;;
20458;SDS011;10388;52.314;7.938;2023-05-10T07:28:22;17.87;;;11.10;;
20458;SDS011;10388;52.314;7.938;2023-05-10T07:30:54;15.70;;;10.50;;
20458;SDS011;10388;52.314;7.938;2023-05-10T07:33:24;15.50;;;10.50;;
20458;SDS011;10388;52.314;7.938;2023-05-10T07:35:55;13.20;;;9.73;;
20458;SDS011;10388;52.314;7.938;2023-05-10T07:38:25;16.57;;;10.63;;
20458;SDS011;10388;52.314;7.938;2023-05-10T07:40:56;14.97;;;10.67;;
20458;SDS011;10388;52.314;7.938;2023-05-10T07:43:26;16.60;;;11.07;;
20458;SDS011;10388;52.314;7.938;2023-05-10T07:45:57;15.67;;;10.37;;
20458;SDS011;10388;52.314;7.938;2023-05-10T07:48:29;17.63;;;11.87;;
20458;SDS011;10388;52.314;7.938;2023-05-10T07:51:00;17.80;;;11.73;;
20458;SDS011;10388;52.314;7.938;2023-05-10T07:53:30;17.50;;;11.60;;
20458;SDS011;10388;52.314;7.938;2023-05-10T07:56:19;17.53;;;11.67;;
20458;SDS011;10388;52.314;7.938;2023-05-10T07:58:53;18.67;;;11.43;;
20458;SDS011;10388;52.314;7.938;2023-05-10T08:01:24;17.80;;;12.33;;
20458;SDS011;10388;52.314;7.938;2023-05-10T08:03:55;18.93;;;12.03;;
20458;SDS011;10388;52.314;7.938;2023-05-10T08:06:26;15.53;;;11.53;;
20458;SDS011;10388;52.314;7.938;2023-05-10T08:08:58;18.23;;;11.70;;
20458;SDS011;10388;52.314;7.938;2023-05-10T08:11:28;16.93;;;11.80;;
20458;SDS011;10388;52.314;7.938;2023-05-10T08:13:59;18.50;;;12.33;;
20458;SDS011;10388;52.314;7.938;2023-05-10T08:16:29;18.43;;;11.87;;
20458;SDS011;10388;52.314;7.938;2023-05-10T08:19:00;21.70;;;13.80;;
20458;SDS011;10388;52.314;7.938;2023-05-10T08:21:30;20.37;;;13.50;;
20458;SDS011;10388;52.314;7.938;2023-05-10T08:24:01;18.50;;;13.27;;
20458;SDS011;10388;52.314;7.938;2023-05-10T08:26:32;19.17;;;13.30;;
20458;SDS011;10388;52.314;7.938;2023-05-10T08:29:02;21.70;;;12.27;;
20458;SDS011;10388;52.314;7.938;2023-05-10T08:31:33;20.27;;;14.20;;
20458;SDS011;10388;52.314;7.938;2023-05-10T08:34:03;18.50;;;12.50;;
20458;SDS011;10388;52.314;7.938;2023-05-10T08:36:34;20.20;;;12.83;;
20458;SDS011;10388;52.314;7.938;2023-05-10T08:39:04;18.30;;;12.90;;
20458;SDS011;10388;52.314;7.938;2023-05-10T08:41:35;16.17;;;11.67;;
20458;SDS011;10388;52.314;7.938;2023-05-10T08:44:09;13.67;;;10.70;;
20458;SDS011;10388;52.314;7.938;2023-05-10T08:46:41;18.97;;;13.13;;
20458;SDS011;10388;52.314;7.938;2023-05-10T08:49:15;17.80;;;12.30;;
20458;SDS011;10388;52.314;7.938;2023-05-10T08:51:49;17.87;;;12.63;;
20458;SDS011;10388;52.314;7.938;2023-05-10T08:54:24;18.10;;;11.93;;
20458;SDS011;10388;52.314;7.938;2023-05-10T08:56:55;15.13;;;11.30;;
20458;SDS011;10388;52.314;7.938;2023-05-10T08:59:26;15.27;;;11.63;;
20458;SDS011;10388;52.314;7.938;2023-05-10T09:01:57;17.17;;;12.30;;
20458;SDS011;10388;52.314;7.938;2023-05-10T09:04:29;17.93;;;11.57;;
20458;SDS011;10388;52.314;7.938;2023-05-10T09:07:00;16.33;;;11.03;;
20458;SDS011;10388;52.314;7.938;2023-05-10T09:09:31;18.70;;;11.40;;
20458;SDS011;10388;52.314;7.938;2023-05-10T09:12:02;14.07;;;11.50;;
20458;SDS011;10388;52.314;7.938;2023-05-10T09:14:33;14.60;;;10.93;;
20458;SDS011;10388;52.314;7.938;2023-05-10T09:17:05;16.07;;;11.57;;
20458;SDS011;10388;52.314;7.938;2023-05-10T09:19:36;17.83;;;10.93;;
20458;SDS011;10388;52.314;7.938;2023-05-10T09:22:06;19.10;;;11.60;;
20458;SDS011;10388;52.314;7.938;2023-05-10T09:24:37;15.27;;;10.70;;
20458;SDS011;10388;52.314;7.938;2023-05-10T09:27:12;15.73;;;11.03;;
20458;SDS011;10388;52.314;7.938;2023-05-10T09:29:42;14.30;;;9.87;;
20458;SDS011;10388;52.314;7.938;2023-05-10T09:32:14;16.67;;;10.17;;
20458;SDS011;10388;52.314;7.938;2023-05-10T09:34:44;13.40;;;9.93;;
20458;SDS011;10388;52.314;7.938;2023-05-10T09:37:19;13.57;;;9.80;;
20458;SDS011;10388;52.314;7.938;2023-05-10T09:39:59;13.03;;;9.93;;
20458;SDS011;10388;52.314;7.938;2023-05-10T09:42:30;13.53;;;10.53;;
20458;SDS011;10388;52.314;7.938;2023-05-10T09:45:01;15.93;;;10.70;;
20458;SDS011;10388;52.314;7.938;2023-05-10T09:47:34;16.37;;;10.83;;
20458;SDS011;10388;52.314;7.938;2023-05-10T09:50:05;14.23;;;9.83;;
20458;SDS011;10388;52.314;7.938;2023-05-10T09:52:45;14.33;;;10.03;;
20458;SDS011;10388;52.314;7.938;2023-05-10T09:55:23;13.37;;;9.93;;
20458;SDS011;10388;52.314;7.938;2023-05-10T09:57:59;16.50;;;9.90;;
20458;SDS011;10388;52.314;7.938;2023-05-10T10:00:34;14.17;;;10.20;;
20458;SDS011;10388;52.314;7.938;2023-05-10T10:03:11;14.17;;;10.57;;
20458;SDS011;10388;52.314;7.938;2023-05-10T10:05:44;14.40;;;9.97;;
20458;SDS011;10388;52.314;7.938;2023-05-10T10:08:16;14.80;;;10.37;;
20458;SDS011;10388;52.314;7.938;2023-05-10T10:10:47;15.70;;;11.80;;
20458;SDS011;10388;52.314;7.938;2023-05-10T10:13:18;13.33;;;9.60;;
20458;SDS011;10388;52.314;7.938;2023-05-10T10:15:49;14.17;;;10.37;;
20458;SDS011;10388;52.314;7.938;2023-05-10T10:18:21;16.13;;;11.10;;
20458;SDS011;10388;52.314;7.938;2023-05-10T10:20:56;15.87;;;10.63;;
20458;SDS011;10388;52.314;7.938;2023-05-10T10:23:28;12.77;;;9.87;;
20458;SDS011;10388;52.314;7.938;2023-05-10T10:25:58;15.10;;;10.13;;
20458;SDS011;10388;52.314;7.938;2023-05-10T10:34:09;13.43;;;9.10;;
20458;SDS011;10388;52.314;7.938;2023-05-10T10:36:47;11.77;;;8.60;;
20458;SDS011;10388;52.314;7.938;2023-05-10T10:39:17;12.20;;;9.03;;
20458;SDS011;10388;52.314;7.938;2023-05-10T10:41:51;13.53;;;8.57;;
20458;SDS011;10388;52.314;7.938;2023-05-10T10:44:26;7.50;;;6.70;;
20458;SDS011;10388;52.314;7.938;2023-05-10T10:49:49;9.13;;;7.13;;
20458;SDS011;10388;52.314;7.938;2023-05-10T10:52:23;10.70;;;7.40;;
20458;SDS011;10388;52.314;7.938;2023-05-10T10:55:00;11.80;;;7.30;;
20458;SDS011;10388;52.314;7.938;2023-05-10T10:57:48;11.60;;;8.03;;
20458;SDS011;10388;52.314;7.938;2023-05-10T11:05:40;11.63;;;7.57;;
20458;SDS011;10388;52.314;7.938;2023-05-10T11:08:15;9.73;;;7.40;;
20458;SDS011;10388;52.314;7.938;2023-05-10T11:16:57;9.20;;;7.77;;
20458;SDS011;10388;52.314;7.938;2023-05-10T11:19:13;15.40;;;8.57;;
20458;SDS011;10388;52.314;7.938;2023-05-10T11:24:21;13.80;;;9.43;;
20458;SDS011;10388;52.314;7.938;2023-05-10T11:26:52;13.73;;;9.77;;
20458;SDS011;10388;52.314;7.938;2023-05-10T11:29:23;14.57;;;10.50;;
20458;SDS011;10388;52.314;7.938;2023-05-10T11:31:56;12.50;;;10.10;;
20458;SDS011;10388;52.314;7.938;2023-05-10T11:34:29;14.10;;;9.90;;
20458;SDS011;10388;52.314;7.938;2023-05-10T11:37:01;13.77;;;9.67;;
20458;SDS011;10388;52.314;7.938;2023-05-10T11:39:32;12.30;;;9.27;;
20458;SDS011;10388;52.314;7.938;2023-05-10T11:42:03;16.73;;;10.43;;
20458;SDS011;10388;52.314;7.938;2023-05-10T11:44:34;10.90;;;8.53;;
20458;SDS011;10388;52.314;7.938;2023-05-10T11:47:04;13.27;;;9.53;;
20458;SDS011;10388;52.314;7.938;2023-05-10T11:49:35;13.27;;;9.10;;
20458;SDS011;10388;52.314;7.938;2023-05-10T11:52:06;11.03;;;8.40;;
20458;SDS011;10388;52.314;7.938;2023-05-10T11:54:44;12.27;;;8.73;;
20458;SDS011;10388;52.314;7.938;2023-05-10T11:57:20;10.87;;;8.33;;
20458;SDS011;10388;52.314;7.938;2023-05-10T11:59:57;10.50;;;8.60;;
20458;SDS011;10388;52.314;7.938;2023-05-10T12:02:28;10.20;;;7.60;;
20458;SDS011;10388;52.314;7.938;2023-05-10T12:04:59;8.43;;;7.03;;
20458;SDS011;10388;52.314;7.938;2023-05-10T12:07:30;11.13;;;8.33;;
20458;SDS011;10388;52.314;7.938;2023-05-10T12:12:44;11.73;;;7.97;;
20458;SDS011;10388;52.314;7.938;2023-05-10T12:15:18;11.17;;;7.97;;
20458;SDS011;10388;52.314;7.938;2023-05-10T12:17:53;11.00;;;7.83;;
20458;SDS011;10388;52.314;7.938;2023-05-10T12:20:24;10.50;;;7.83;;
20458;SDS011;10388;52.314;7.938;2023-05-10T12:22:58;10.83;;;6.87;;
20458;SDS011;10388;52.314;7.938;2023-05-10T12:25:29;7.30;;;5.87;;
20458;SDS011;10388;52.314;7.938;2023-05-10T12:28:04;7.67;;;6.43;;
20458;SDS011;10388;52.314;7.938;2023-05-10T12:30:37;9.43;;;6.80;;
20458;SDS011;10388;52.314;7.938;2023-05-10T12:33:09;12.07;;;6.43;;
20458;SDS011;10388;52.314;7.938;2023-05-10T12:35:48;8.13;;;6.43;;
20458;SDS011;10388;52.314;7.938;2023-05-10T12:38:27;11.10;;;6.93;;
20458;SDS011;10388;52.314;7.938;2023-05-10T12:41:09;8.57;;;6.60;;
20458;SDS011;10388;52.314;7.938;2023-05-10T12:43:40;8.50;;;6.33;;
20458;SDS011;10388;52.314;7.938;2023-05-10T12:46:12;8.07;;;6.07;;
20458;SDS011;10388;52.314;7.938;2023-05-10T12:48:44;11.07;;;6.43;;
20458;SDS011;10388;52.314;7.938;2023-05-10T12:51:24;8.67;;;6.47;;
20458;SDS011;10388;52.314;7.938;2023-05-10T12:53:55;7.83;;;6.13;;
20458;SDS011;10388;52.314;7.938;2023-05-10T12:56:25;9.87;;;6.57;;
20458;SDS011;10388;52.314;7.938;2023-05-10T12:58:56;9.77;;;7.47;;
20458;SDS011;10388;52.314;7.938;2023-05-10T13:01:26;9.27;;;6.47;;
20458;SDS011;10388;52.314;7.938;2023-05-10T13:03:57;10.40;;;6.20;;
20458;SDS011;10388;52.314;7.938;2023-05-10T13:06:27;8.43;;;5.63;;
20458;SDS011;10388;52.314;7.938;2023-05-10T13:08:58;8.13;;;5.70;;
20458;SDS011;10388;52.314;7.938;2023-05-10T13:11:28;7.60;;;6.07;;
20458;SDS011;10388;52.314;7.938;2023-05-10T13:13:59;6.90;;;5.87;;
20458;SDS011;10388;52.314;7.938;2023-05-10T13:16:30;10.23;;;7.00;;
20458;SDS011;10388;52.314;7.938;2023-05-10T13:19:01;8.90;;;6.60;;
20458;SDS011;10388;52.314;7.938;2023-05-10T13:21:31;9.37;;;7.10;;
20458;SDS011;10388;52.314;7.938;2023-05-10T13:24:02;6.90;;;5.90;;
20458;SDS011;10388;52.314;7.938;2023-05-10T13:26:32;10.50;;;6.57;;
20458;SDS011;10388;52.314;7.938;2023-05-10T13:29:03;8.77;;;6.93;;
20458;SDS011;10388;52.314;7.938;2023-05-10T13:31:34;10.50;;;6.93;;
20458;SDS011;10388;52.314;7.938;2023-05-10T13:34:05;8.67;;;7.10;;
20458;SDS011;10388;52.314;7.938;2023-05-10T13:36:36;8.17;;;6.63;;
20458;SDS011;10388;52.314;7.938;2023-05-10T13:39:06;8.80;;;6.57;;
20458;SDS011;10388;52.314;7.938;2023-05-10T13:41:37;8.77;;;6.53;;
20458;SDS011;10388;52.314;7.938;2023-05-10T13:44:08;8.80;;;7.13;;
20458;SDS011;10388;52.314;7.938;2023-05-10T13:46:38;7.87;;;6.20;;
20458;SDS011;10388;52.314;7.938;2023-05-10T13:49:09;9.17;;;6.67;;
20458;SDS011;10388;52.314;7.938;2023-05-10T13:51:39;7.83;;;6.63;;
20458;SDS011;10388;52.314;7.938;2023-05-10T13:54:10;8.40;;;6.37;;
20458;SDS011;10388;52.314;7.938;2023-05-10T13:56:41;8.53;;;6.20;;
20458;SDS011;10388;52.314;7.938;2023-05-10T13:59:12;9.37;;;6.57;;
20458;SDS011;10388;52.314;7.938;2023-05-10T14:01:44;6.00;;;5.40;;
20458;SDS011;10388;52.314;7.938;2023-05-10T14:04:14;6.77;;;5.73;;
20458;SDS011;10388;52.314;7.938;2023-05-10T14:06:45;6.53;;;5.83;;
20458;SDS011;10388;52.314;7.938;2023-05-10T14:09:15;8.47;;;5.87;;
20458;SDS011;10388;52.314;7.938;2023-05-10T14:11:47;8.47;;;5.43;;
20458;SDS011;10388;52.314;7.938;2023-05-10T14:14:17;6.73;;;5.43;;
20458;SDS011;10388;52.314;7.938;2023-05-10T14:16:48;6.40;;;5.13;;
20458;SDS011;10388;52.314;7.938;2023-05-10T14:19:18;6.27;;;5.47;;
20458;SDS011;10388;52.314;7.938;2023-05-10T14:21:49;10.87;;;5.67;;
20458;SDS011;10388;52.314;7.938;2023-05-10T14:24:19;7.50;;;5.10;;
20458;SDS011;10388;52.314;7.938;2023-05-10T14:26:50;6.60;;;5.20;;
20458;SDS011;10388;52.314;7.938;2023-05-10T14:29:23;5.83;;;4.87;;
20458;SDS011;10388;52.314;7.938;2023-05-10T14:31:54;4.83;;;4.20;;
20458;SDS011;10388;52.314;7.938;2023-05-10T14:34:24;6.17;;;4.87;;
20458;SDS011;10388;52.314;7.938;2023-05-10T14:36:55;6.73;;;4.50;;
20458;SDS011;10388;52.314;7.938;2023-05-10T14:39:25;6.37;;;4.50;;
20458;SDS011;10388;52.314;7.938;2023-05-10T14:41:59;6.87;;;4.20;;
20458;SDS011;10388;52.314;7.938;2023-05-10T14:44:29;5.20;;;4.40;;
20458;SDS011;10388;52.314;7.938;2023-05-10T14:47:00;4.33;;;3.93;;
20458;SDS011;10388;52.314;7.938;2023-05-10T14:49:31;5.53;;;3.60;;
20458;SDS011;10388;52.314;7.938;2023-05-10T14:52:01;5.73;;;3.60;;
20458;SDS011;10388;52.314;7.938;2023-05-10T14:54:32;3.90;;;3.37;;
20458;SDS011;10388;52.314;7.938;2023-05-10T14:57:03;4.67;;;3.80;;
20458;SDS011;10388;52.314;7.938;2023-05-10T14:59:34;4.63;;;3.73;;
20458;SDS011;10388;52.314;7.938;2023-05-10T15:02:04;4.87;;;3.90;;
20458;SDS011;10388;52.314;7.938;2023-05-10T15:04:35;5.10;;;3.80;;
20458;SDS011;10388;52.314;7.938;2023-05-10T15:07:06;5.97;;;4.17;;
20458;SDS011;10388;52.314;7.938;2023-05-10T15:09:36;4.87;;;3.57;;
20458;SDS011;10388;52.314;7.938;2023-05-10T15:12:07;6.53;;;4.30;;
20458;SDS011;10388;52.314;7.938;2023-05-10T15:14:37;6.33;;;3.90;;
20458;SDS011;10388;52.314;7.938;2023-05-10T15:17:08;4.50;;;3.77;;
20458;SDS011;10388;52.314;7.938;2023-05-10T15:19:38;3.80;;;3.27;;
20458;SDS011;10388;52.314;7.938;2023-05-10T15:22:09;5.20;;;3.63;;
20458;SDS011;10388;52.314;7.938;2023-05-10T15:24:40;4.83;;;3.43;;
20458;SDS011;10388;52.314;7.938;2023-05-10T15:27:10;5.40;;;3.60;;
20458;SDS011;10388;52.314;7.938;2023-05-10T15:29:41;5.50;;;4.00;;
20458;SDS011;10388;52.314;7.938;2023-05-10T15:32:12;4.33;;;3.10;;
20458;SDS011;10388;52.314;7.938;2023-05-10T15:34:42;4.40;;;3.47;;
20458;SDS011;10388;52.314;7.938;2023-05-10T15:37:13;3.83;;;3.43;;
20458;SDS011;10388;52.314;7.938;2023-05-10T15:39:43;5.40;;;3.60;;
20458;SDS011;10388;52.314;7.938;2023-05-10T15:42:14;6.33;;;4.17;;
20458;SDS011;10388;52.314;7.938;2023-05-10T15:44:44;4.70;;;3.33;;
20458;SDS011;10388;52.314;7.938;2023-05-10T15:47:19;5.47;;;3.37;;
20458;SDS011;10388;52.314;7.938;2023-05-10T15:49:50;4.40;;;3.43;;
20458;SDS011;10388;52.314;7.938;2023-05-10T15:52:21;4.43;;;3.03;;
20458;SDS011;10388;52.314;7.938;2023-05-10T15:54:52;4.20;;;2.90;;
20458;SDS011;10388;52.314;7.938;2023-05-10T15:57:23;4.17;;;2.90;;
20458;SDS011;10388;52.314;7.938;2023-05-10T15:59:53;4.90;;;3.67;;
20458;SDS011;10388;52.314;7.938;2023-05-10T16:02:25;4.03;;;3.30;;
20458;SDS011;10388;52.314;7.938;2023-05-10T16:04:55;3.27;;;2.97;;
20458;SDS011;10388;52.314;7.938;2023-05-10T16:07:26;4.60;;;3.90;;
20458;SDS011;10388;52.314;7.938;2023-05-10T16:09:56;3.60;;;3.03;;
20458;SDS011;10388;52.314;7.938;2023-05-10T16:12:27;4.13;;;3.60;;
20458;SDS011;10388;52.314;7.938;2023-05-10T16:14:57;4.73;;;2.83;;
20458;SDS011;10388;52.314;7.938;2023-05-10T16:17:28;4.10;;;3.13;;
20458;SDS011;10388;52.314;7.938;2023-05-10T16:19:59;5.60;;;4.03;;
20458;SDS011;10388;52.314;7.938;2023-05-10T16:22:30;5.77;;;3.30;;
20458;SDS011;10388;52.314;7.938;2023-05-10T16:25:00;3.30;;;3.00;;
20458;SDS011;10388;52.314;7.938;2023-05-10T16:27:31;4.57;;;3.13;;
20458;SDS011;10388;52.314;7.938;2023-05-10T16:30:02;4.90;;;3.97;;
20458;SDS011;10388;52.314;7.938;2023-05-10T16:32:33;6.73;;;5.60;;
20458;SDS011;10388;52.314;7.938;2023-05-10T16:35:04;5.43;;;3.87;;
20458;SDS011;10388;52.314;7.938;2023-05-10T16:37:35;4.67;;;3.60;;
20458;SDS011;10388;52.314;7.938;2023-05-10T16:40:05;4.37;;;3.47;;
20458;SDS011;10388;52.314;7.938;2023-05-10T16:42:36;10.73;;;3.40;;
20458;SDS011;10388;52.314;7.938;2023-05-10T16:45:07;4.43;;;2.77;;
20458;SDS011;10388;52.314;7.938;2023-05-10T16:47:38;3.50;;;3.20;;
20458;SDS011;10388;52.314;7.938;2023-05-10T16:50:09;4.37;;;3.90;;
20458;SDS011;10388;52.314;7.938;2023-05-10T16:52:40;5.57;;;3.67;;
20458;SDS011;10388;52.314;7.938;2023-05-10T16:55:10;4.50;;;3.80;;
20458;SDS011;10388;52.314;7.938;2023-05-10T16:57:41;3.93;;;3.13;;
20458;SDS011;10388;52.314;7.938;2023-05-10T17:00:12;5.17;;;4.33;;
20458;SDS011;10388;52.314;7.938;2023-05-10T17:02:43;4.17;;;3.77;;
20458;SDS011;10388;52.314;7.938;2023-05-10T17:05:13;4.37;;;3.40;;
20458;SDS011;10388;52.314;7.938;2023-05-10T17:07:44;5.67;;;3.30;;
20458;SDS011;10388;52.314;7.938;2023-05-10T17:10:14;4.83;;;3.60;;
20458;SDS011;10388;52.314;7.938;2023-05-10T17:12:45;4.40;;;3.63;;
20458;SDS011;10388;52.314;7.938;2023-05-10T17:15:16;4.20;;;3.80;;
20458;SDS011;10388;52.314;7.938;2023-05-10T17:17:47;6.17;;;4.20;;
20458;SDS011;10388;52.314;7.938;2023-05-10T17:20:18;8.30;;;4.37;;
20458;SDS011;10388;52.314;7.938;2023-05-10T17:22:49;4.00;;;3.60;;
20458;SDS011;10388;52.314;7.938;2023-05-10T17:25:19;5.17;;;3.30;;
20458;SDS011;10388;52.314;7.938;2023-05-10T17:27:50;4.80;;;3.77;;
20458;SDS011;10388;52.314;7.938;2023-05-10T17:30:20;4.60;;;2.93;;
20458;SDS011;10388;52.314;7.938;2023-05-10T17:32:55;4.83;;;3.03;;
20458;SDS011;10388;52.314;7.938;2023-05-10T17:35:25;3.37;;;2.30;;
20458;SDS011;10388;52.314;7.938;2023-05-10T17:37:56;2.90;;;2.60;;
20458;SDS011;10388;52.314;7.938;2023-05-10T17:40:27;6.27;;;2.63;;
20458;SDS011;10388;52.314;7.938;2023-05-10T17:42:57;4.93;;;2.87;;
20458;SDS011;10388;52.314;7.938;2023-05-10T17:45:28;6.80;;;2.80;;
20458;SDS011;10388;52.314;7.938;2023-05-10T17:47:59;3.20;;;2.70;;
20458;SDS011;10388;52.314;7.938;2023-05-10T17:50:29;5.47;;;2.93;;
20458;SDS011;10388;52.314;7.938;2023-05-10T17:53:01;3.83;;;2.90;;
20458;SDS011;10388;52.314;7.938;2023-05-10T17:55:32;3.53;;;2.80;;
20458;SDS011;10388;52.314;7.938;2023-05-10T17:58:02;3.83;;;2.50;;
20458;SDS011;10388;52.314;7.938;2023-05-10T18:00:33;4.17;;;2.90;;
20458;SDS011;10388;52.314;7.938;2023-05-10T18:03:04;4.50;;;3.10;;
20458;SDS011;10388;52.314;7.938;2023-05-10T18:05:35;3.60;;;3.10;;
20458;SDS011;10388;52.314;7.938;2023-05-10T18:08:06;3.30;;;3.00;;
20458;SDS011;10388;52.314;7.938;2023-05-10T18:10:37;4.80;;;3.20;;
20458;SDS011;10388;52.314;7.938;2023-05-10T18:13:08;4.27;;;3.30;;
20458;SDS011;10388;52.314;7.938;2023-05-10T18:15:38;4.67;;;2.97;;
20458;SDS011;10388;52.314;7.938;2023-05-10T18:18:10;3.97;;;3.27;;
20458;SDS011;10388;52.314;7.938;2023-05-10T18:20:40;3.77;;;3.07;;
20458;SDS011;10388;52.314;7.938;2023-05-10T18:23:11;4.47;;;3.67;;
20458;SDS011;10388;52.314;7.938;2023-05-10T18:25:42;4.50;;;3.50;;
20458;SDS011;10388;52.314;7.938;2023-05-10T18:28:13;4.80;;;3.60;;
20458;SDS011;10388;52.314;7.938;2023-05-10T18:30:43;8.57;;;4.00;;
20458;SDS011;10388;52.314;7.938;2023-05-10T18:33:14;4.83;;;3.93;;
20458;SDS011;10388;52.314;7.938;2023-05-10T18:35:45;5.57;;;4.30;;
20458;SDS011;10388;52.314;7.938;2023-05-10T18:38:15;5.13;;;3.53;;
20458;SDS011;10388;52.314;7.938;2023-05-10T18:40:46;4.80;;;3.83;;
20458;SDS011;10388;52.314;7.938;2023-05-10T18:43:17;5.90;;;4.83;;
20458;SDS011;10388;52.314;7.938;2023-05-10T18:45:47;5.97;;;5.40;;
20458;SDS011;10388;52.314;7.938;2023-05-10T18:48:19;7.67;;;6.17;;
20458;SDS011;10388;52.314;7.938;2023-05-10T18:50:50;7.30;;;5.83;;
20458;SDS011;10388;52.314;7.938;2023-05-10T18:53:20;8.43;;;7.50;;
20458;SDS011;10388;52.314;7.938;2023-05-10T18:55:57;8.90;;;7.60;;
20458;SDS011;10388;52.314;7.938;2023-05-10T18:58:28;12.40;;;10.50;;
20458;SDS011;10388;52.314;7.938;2023-05-10T19:00:59;14.83;;;12.50;;